sensor_id;sensor_type;location;lat;lon;timestamp;P1;durP1;ratioP1;P2;durP2;ratioP2
56136;SDS011;42008;52.934;5.884;2023-11-19T00:00:38;61.23;;;9.87;;
56136;SDS011;42008;52.934;5.884;2023-11-19T00:03:04;50.80;;;9.83;;
56136;SDS011;42008;52.934;5.884;2023-11-19T00:05:30;53.57;;;8.90;;
56136;SDS011;42008;52.934;5.884;2023-11-19T00:07:57;54.43;;;9.20;;
56136;SDS011;42008;52.934;5.884;2023-11-19T00:10:23;55.53;;;8.63;;
56136;SDS011;42008;52.934;5.884;2023-11-19T00:12:49;57.83;;;9.37;;
56136;SDS011;42008;52.934;5.884;2023-11-19T00:15:16;58.30;;;8.87;;
56136;SDS011;42008;52.934;5.884;2023-11-19T00:17:44;56.63;;;8.30;;
56136;SDS011;42008;52.934;5.884;2023-11-19T00:20:10;48.17;;;8.50;;
56136;SDS011;42008;52.934;5.884;2023-11-19T00:22:37;53.30;;;8.70;;
56136;SDS011;42008;52.934;5.884;2023-11-19T00:25:03;57.30;;;9.00;;
56136;SDS011;42008;52.934;5.884;2023-11-19T00:27:30;58.33;;;8.33;;
56136;SDS011;42008;52.934;5.884;2023-11-19T00:29:56;63.73;;;9.63;;
56136;SDS011;42008;52.934;5.884;2023-11-19T00:32:22;59.57;;;9.60;;
56136;SDS011;42008;52.934;5.884;2023-11-19T00:34:48;60.07;;;8.93;;
56136;SDS011;42008;52.934;5.884;2023-11-19T00:37:15;63.47;;;9.30;;
56136;SDS011;42008;52.934;5.884;2023-11-19T00:39:41;58.83;;;9.20;;
56136;SDS011;42008;52.934;5.884;2023-11-19T00:42:07;65.20;;;9.77;;
56136;SDS011;42008;52.934;5.884;2023-11-19T00:44:35;60.17;;;10.07;;
56136;SDS011;42008;52.934;5.884;2023-11-19T00:47:01;66.27;;;10.23;;
56136;SDS011;42008;52.934;5.884;2023-11-19T00:49:27;58.77;;;9.17;;
56136;SDS011;42008;52.934;5.884;2023-11-19T00:51:53;69.83;;;10.43;;
56136;SDS011;42008;52.934;5.884;2023-11-19T00:54:19;68.83;;;9.07;;
56136;SDS011;42008;52.934;5.884;2023-11-19T00:56:45;57.53;;;9.27;;
56136;SDS011;42008;52.934;5.884;2023-11-19T00:59:11;57.27;;;8.60;;
56136;SDS011;42008;52.934;5.884;2023-11-19T01:01:37;60.53;;;9.93;;
56136;SDS011;42008;52.934;5.884;2023-11-19T01:04:03;63.93;;;9.17;;
56136;SDS011;42008;52.934;5.884;2023-11-19T01:06:30;55.03;;;8.63;;
56136;SDS011;42008;52.934;5.884;2023-11-19T01:08:56;69.77;;;9.70;;
56136;SDS011;42008;52.934;5.884;2023-11-19T01:11:23;60.67;;;9.17;;
56136;SDS011;42008;52.934;5.884;2023-11-19T01:13:49;58.43;;;8.67;;
56136;SDS011;42008;52.934;5.884;2023-11-19T01:16:16;68.70;;;9.33;;
56136;SDS011;42008;52.934;5.884;2023-11-19T01:18:42;66.90;;;9.10;;
56136;SDS011;42008;52.934;5.884;2023-11-19T01:21:08;57.23;;;8.43;;
56136;SDS011;42008;52.934;5.884;2023-11-19T01:23:34;55.77;;;9.27;;
56136;SDS011;42008;52.934;5.884;2023-11-19T01:26:00;62.70;;;8.90;;
56136;SDS011;42008;52.934;5.884;2023-11-19T01:28:26;62.43;;;8.80;;
56136;SDS011;42008;52.934;5.884;2023-11-19T01:30:52;56.93;;;8.63;;
56136;SDS011;42008;52.934;5.884;2023-11-19T01:33:18;59.07;;;8.43;;
56136;SDS011;42008;52.934;5.884;2023-11-19T01:35:44;65.67;;;9.50;;
56136;SDS011;42008;52.934;5.884;2023-11-19T01:38:10;63.60;;;8.97;;
56136;SDS011;42008;52.934;5.884;2023-11-19T01:40:36;64.30;;;8.60;;
56136;SDS011;42008;52.934;5.884;2023-11-19T01:43:03;62.17;;;9.80;;
56136;SDS011;42008;52.934;5.884;2023-11-19T01:45:29;56.33;;;8.80;;
56136;SDS011;42008;52.934;5.884;2023-11-19T01:47:56;64.90;;;9.47;;
56136;SDS011;42008;52.934;5.884;2023-11-19T01:50:22;54.00;;;8.43;;
56136;SDS011;42008;52.934;5.884;2023-11-19T01:52:50;61.30;;;9.37;;
56136;SDS011;42008;52.934;5.884;2023-11-19T01:55:16;59.03;;;8.83;;
56136;SDS011;42008;52.934;5.884;2023-11-19T01:57:42;69.20;;;10.10;;
56136;SDS011;42008;52.934;5.884;2023-11-19T02:00:09;72.87;;;9.83;;
56136;SDS011;42008;52.934;5.884;2023-11-19T02:02:36;56.63;;;8.33;;
56136;SDS011;42008;52.934;5.884;2023-11-19T02:05:04;60.10;;;9.37;;
56136;SDS011;42008;52.934;5.884;2023-11-19T02:07:30;49.30;;;7.67;;
56136;SDS011;42008;52.934;5.884;2023-11-19T02:09:57;54.77;;;9.13;;
56136;SDS011;42008;52.934;5.884;2023-11-19T02:12:26;52.73;;;8.77;;
56136;SDS011;42008;52.934;5.884;2023-11-19T02:14:58;51.50;;;7.80;;
56136;SDS011;42008;52.934;5.884;2023-11-19T02:17:25;57.20;;;8.87;;
56136;SDS011;42008;52.934;5.884;2023-11-19T02:19:51;56.33;;;8.87;;
56136;SDS011;42008;52.934;5.884;2023-11-19T02:22:17;63.87;;;9.27;;
56136;SDS011;42008;52.934;5.884;2023-11-19T02:24:43;73.03;;;8.30;;
56136;SDS011;42008;52.934;5.884;2023-11-19T02:27:14;57.47;;;9.27;;
56136;SDS011;42008;52.934;5.884;2023-11-19T02:29:42;62.30;;;9.50;;
56136;SDS011;42008;52.934;5.884;2023-11-19T02:32:08;61.23;;;9.30;;
56136;SDS011;42008;52.934;5.884;2023-11-19T02:34:34;67.10;;;8.90;;
56136;SDS011;42008;52.934;5.884;2023-11-19T02:37:00;59.77;;;9.50;;
56136;SDS011;42008;52.934;5.884;2023-11-19T02:39:26;51.63;;;8.80;;
56136;SDS011;42008;52.934;5.884;2023-11-19T02:41:53;51.73;;;8.23;;
56136;SDS011;42008;52.934;5.884;2023-11-19T02:44:19;48.40;;;8.63;;
56136;SDS011;42008;52.934;5.884;2023-11-19T02:46:45;64.73;;;10.10;;
56136;SDS011;42008;52.934;5.884;2023-11-19T02:49:13;51.10;;;8.00;;
56136;SDS011;42008;52.934;5.884;2023-11-19T02:51:39;58.47;;;8.07;;
56136;SDS011;42008;52.934;5.884;2023-11-19T02:54:05;64.23;;;8.33;;
56136;SDS011;42008;52.934;5.884;2023-11-19T02:56:31;65.13;;;10.03;;
56136;SDS011;42008;52.934;5.884;2023-11-19T02:59:00;73.90;;;9.17;;
56136;SDS011;42008;52.934;5.884;2023-11-19T03:01:34;71.90;;;9.80;;
56136;SDS011;42008;52.934;5.884;2023-11-19T03:04:01;64.63;;;10.30;;
56136;SDS011;42008;52.934;5.884;2023-11-19T03:06:27;69.33;;;10.07;;
56136;SDS011;42008;52.934;5.884;2023-11-19T03:08:54;71.57;;;10.23;;
56136;SDS011;42008;52.934;5.884;2023-11-19T03:11:20;57.10;;;8.30;;
56136;SDS011;42008;52.934;5.884;2023-11-19T03:13:46;64.50;;;10.73;;
56136;SDS011;42008;52.934;5.884;2023-11-19T03:16:12;60.57;;;8.60;;
56136;SDS011;42008;52.934;5.884;2023-11-19T03:18:38;68.47;;;11.00;;
56136;SDS011;42008;52.934;5.884;2023-11-19T03:21:07;67.50;;;10.57;;
56136;SDS011;42008;52.934;5.884;2023-11-19T03:23:34;65.37;;;9.60;;
56136;SDS011;42008;52.934;5.884;2023-11-19T03:26:00;65.97;;;9.50;;
56136;SDS011;42008;52.934;5.884;2023-11-19T03:28:29;68.43;;;11.47;;
56136;SDS011;42008;52.934;5.884;2023-11-19T03:30:55;65.47;;;9.67;;
56136;SDS011;42008;52.934;5.884;2023-11-19T03:33:21;69.33;;;10.60;;
56136;SDS011;42008;52.934;5.884;2023-11-19T03:35:48;73.37;;;9.77;;
56136;SDS011;42008;52.934;5.884;2023-11-19T03:38:13;79.43;;;10.10;;
56136;SDS011;42008;52.934;5.884;2023-11-19T03:40:39;66.53;;;8.93;;
56136;SDS011;42008;52.934;5.884;2023-11-19T03:43:06;57.10;;;9.80;;
56136;SDS011;42008;52.934;5.884;2023-11-19T03:45:32;70.20;;;9.93;;
56136;SDS011;42008;52.934;5.884;2023-11-19T03:47:58;69.80;;;9.23;;
56136;SDS011;42008;52.934;5.884;2023-11-19T03:50:24;60.43;;;10.20;;
56136;SDS011;42008;52.934;5.884;2023-11-19T03:52:50;66.40;;;9.37;;
56136;SDS011;42008;52.934;5.884;2023-11-19T03:55:16;72.07;;;10.80;;
56136;SDS011;42008;52.934;5.884;2023-11-19T03:57:42;64.30;;;10.07;;
56136;SDS011;42008;52.934;5.884;2023-11-19T04:00:08;61.23;;;9.07;;
56136;SDS011;42008;52.934;5.884;2023-11-19T04:02:39;68.27;;;10.33;;
56136;SDS011;42008;52.934;5.884;2023-11-19T04:05:05;67.97;;;11.50;;
56136;SDS011;42008;52.934;5.884;2023-11-19T04:07:31;68.07;;;10.33;;
56136;SDS011;42008;52.934;5.884;2023-11-19T04:09:58;68.27;;;10.37;;
56136;SDS011;42008;52.934;5.884;2023-11-19T04:12:24;70.90;;;10.07;;
56136;SDS011;42008;52.934;5.884;2023-11-19T04:14:50;78.20;;;10.37;;
56136;SDS011;42008;52.934;5.884;2023-11-19T04:17:16;74.77;;;12.17;;
56136;SDS011;42008;52.934;5.884;2023-11-19T04:19:42;64.57;;;11.37;;
56136;SDS011;42008;52.934;5.884;2023-11-19T04:22:08;69.20;;;10.57;;
56136;SDS011;42008;52.934;5.884;2023-11-19T04:24:34;65.70;;;10.53;;
56136;SDS011;42008;52.934;5.884;2023-11-19T04:27:00;66.93;;;11.43;;
56136;SDS011;42008;52.934;5.884;2023-11-19T04:29:26;62.20;;;9.47;;
56136;SDS011;42008;52.934;5.884;2023-11-19T04:31:52;65.27;;;8.83;;
56136;SDS011;42008;52.934;5.884;2023-11-19T04:34:18;63.87;;;9.10;;
56136;SDS011;42008;52.934;5.884;2023-11-19T04:36:44;67.67;;;9.20;;
56136;SDS011;42008;52.934;5.884;2023-11-19T04:39:10;71.90;;;10.53;;
56136;SDS011;42008;52.934;5.884;2023-11-19T04:41:47;69.10;;;10.73;;
56136;SDS011;42008;52.934;5.884;2023-11-19T04:44:19;67.15;;;10.52;;
56136;SDS011;42008;52.934;5.884;2023-11-19T04:46:45;62.13;;;9.17;;
56136;SDS011;42008;52.934;5.884;2023-11-19T04:49:12;58.67;;;9.10;;
56136;SDS011;42008;52.934;5.884;2023-11-19T04:51:42;53.97;;;8.27;;
56136;SDS011;42008;52.934;5.884;2023-11-19T04:54:08;65.07;;;10.63;;
56136;SDS011;42008;52.934;5.884;2023-11-19T04:56:35;76.77;;;10.73;;
56136;SDS011;42008;52.934;5.884;2023-11-19T04:59:02;65.07;;;10.37;;
56136;SDS011;42008;52.934;5.884;2023-11-19T05:01:28;69.57;;;9.70;;
56136;SDS011;42008;52.934;5.884;2023-11-19T05:03:55;65.43;;;11.10;;
56136;SDS011;42008;52.934;5.884;2023-11-19T05:06:25;58.10;;;9.57;;
56136;SDS011;42008;52.934;5.884;2023-11-19T05:08:51;74.80;;;12.00;;
56136;SDS011;42008;52.934;5.884;2023-11-19T05:11:17;76.07;;;11.13;;
56136;SDS011;42008;52.934;5.884;2023-11-19T05:13:44;61.50;;;11.47;;
56136;SDS011;42008;52.934;5.884;2023-11-19T05:16:11;56.07;;;9.33;;
56136;SDS011;42008;52.934;5.884;2023-11-19T05:18:39;70.13;;;11.87;;
56136;SDS011;42008;52.934;5.884;2023-11-19T05:21:05;65.93;;;11.40;;
56136;SDS011;42008;52.934;5.884;2023-11-19T05:23:32;60.53;;;9.27;;
56136;SDS011;42008;52.934;5.884;2023-11-19T05:25:59;63.83;;;9.57;;
56136;SDS011;42008;52.934;5.884;2023-11-19T05:28:25;67.90;;;10.70;;
56136;SDS011;42008;52.934;5.884;2023-11-19T05:30:51;67.67;;;9.90;;
56136;SDS011;42008;52.934;5.884;2023-11-19T05:33:17;60.80;;;10.97;;
56136;SDS011;42008;52.934;5.884;2023-11-19T05:35:43;69.33;;;10.30;;
56136;SDS011;42008;52.934;5.884;2023-11-19T05:38:09;65.33;;;9.97;;
56136;SDS011;42008;52.934;5.884;2023-11-19T05:40:35;62.20;;;9.47;;
56136;SDS011;42008;52.934;5.884;2023-11-19T05:43:03;68.23;;;10.40;;
56136;SDS011;42008;52.934;5.884;2023-11-19T05:45:30;66.77;;;11.03;;
56136;SDS011;42008;52.934;5.884;2023-11-19T05:47:56;76.13;;;11.10;;
56136;SDS011;42008;52.934;5.884;2023-11-19T05:50:22;58.63;;;9.37;;
56136;SDS011;42008;52.934;5.884;2023-11-19T05:52:49;52.50;;;10.07;;
56136;SDS011;42008;52.934;5.884;2023-11-19T05:55:15;67.70;;;10.87;;
56136;SDS011;42008;52.934;5.884;2023-11-19T05:57:41;60.90;;;9.73;;
56136;SDS011;42008;52.934;5.884;2023-11-19T06:00:07;69.47;;;11.67;;
56136;SDS011;42008;52.934;5.884;2023-11-19T06:02:37;58.00;;;10.00;;
56136;SDS011;42008;52.934;5.884;2023-11-19T06:05:04;63.20;;;10.47;;
56136;SDS011;42008;52.934;5.884;2023-11-19T06:07:33;62.07;;;10.13;;
56136;SDS011;42008;52.934;5.884;2023-11-19T06:10:00;65.10;;;10.60;;
56136;SDS011;42008;52.934;5.884;2023-11-19T06:12:26;53.53;;;8.47;;
56136;SDS011;42008;52.934;5.884;2023-11-19T06:14:52;62.23;;;10.53;;
56136;SDS011;42008;52.934;5.884;2023-11-19T06:17:18;69.50;;;11.63;;
56136;SDS011;42008;52.934;5.884;2023-11-19T06:19:44;62.43;;;10.07;;
56136;SDS011;42008;52.934;5.884;2023-11-19T06:22:10;59.23;;;10.07;;
56136;SDS011;42008;52.934;5.884;2023-11-19T06:24:36;60.83;;;11.87;;
56136;SDS011;42008;52.934;5.884;2023-11-19T06:27:02;62.83;;;9.03;;
56136;SDS011;42008;52.934;5.884;2023-11-19T06:29:29;59.53;;;9.70;;
56136;SDS011;42008;52.934;5.884;2023-11-19T06:31:55;70.27;;;11.93;;
56136;SDS011;42008;52.934;5.884;2023-11-19T06:34:22;72.17;;;10.83;;
56136;SDS011;42008;52.934;5.884;2023-11-19T06:36:48;54.80;;;9.87;;
56136;SDS011;42008;52.934;5.884;2023-11-19T06:39:14;68.93;;;11.03;;
56136;SDS011;42008;52.934;5.884;2023-11-19T06:41:44;67.33;;;9.47;;
56136;SDS011;42008;52.934;5.884;2023-11-19T06:44:11;59.73;;;10.10;;
56136;SDS011;42008;52.934;5.884;2023-11-19T06:46:37;62.83;;;10.13;;
56136;SDS011;42008;52.934;5.884;2023-11-19T06:49:03;56.03;;;9.77;;
56136;SDS011;42008;52.934;5.884;2023-11-19T06:51:29;58.30;;;9.37;;
56136;SDS011;42008;52.934;5.884;2023-11-19T06:53:55;44.53;;;8.67;;
56136;SDS011;42008;52.934;5.884;2023-11-19T06:56:24;62.87;;;9.63;;
56136;SDS011;42008;52.934;5.884;2023-11-19T06:58:50;61.80;;;11.33;;
56136;SDS011;42008;52.934;5.884;2023-11-19T07:01:17;52.93;;;9.33;;
56136;SDS011;42008;52.934;5.884;2023-11-19T07:03:46;50.73;;;7.93;;
56136;SDS011;42008;52.934;5.884;2023-11-19T07:06:12;66.13;;;10.87;;
56136;SDS011;42008;52.934;5.884;2023-11-19T07:08:39;59.80;;;9.77;;
56136;SDS011;42008;52.934;5.884;2023-11-19T07:11:05;58.10;;;8.47;;
56136;SDS011;42008;52.934;5.884;2023-11-19T07:13:31;67.33;;;8.70;;
56136;SDS011;42008;52.934;5.884;2023-11-19T07:15:57;62.73;;;10.40;;
56136;SDS011;42008;52.934;5.884;2023-11-19T07:18:23;64.60;;;9.50;;
56136;SDS011;42008;52.934;5.884;2023-11-19T07:20:49;50.77;;;9.43;;
56136;SDS011;42008;52.934;5.884;2023-11-19T07:23:15;56.70;;;8.77;;
56136;SDS011;42008;52.934;5.884;2023-11-19T07:25:44;60.27;;;9.13;;
56136;SDS011;42008;52.934;5.884;2023-11-19T07:28:12;66.37;;;10.67;;
56136;SDS011;42008;52.934;5.884;2023-11-19T07:30:38;57.87;;;10.13;;
56136;SDS011;42008;52.934;5.884;2023-11-19T07:33:04;58.33;;;9.50;;
56136;SDS011;42008;52.934;5.884;2023-11-19T07:35:31;63.63;;;10.33;;
56136;SDS011;42008;52.934;5.884;2023-11-19T07:37:57;58.37;;;9.77;;
56136;SDS011;42008;52.934;5.884;2023-11-19T07:40:23;59.57;;;9.20;;
56136;SDS011;42008;52.934;5.884;2023-11-19T07:42:49;59.80;;;9.40;;
56136;SDS011;42008;52.934;5.884;2023-11-19T07:45:16;58.10;;;9.13;;
56136;SDS011;42008;52.934;5.884;2023-11-19T07:47:42;65.40;;;10.70;;
56136;SDS011;42008;52.934;5.884;2023-11-19T07:50:11;55.40;;;9.17;;
56136;SDS011;42008;52.934;5.884;2023-11-19T07:52:41;55.57;;;8.80;;
56136;SDS011;42008;52.934;5.884;2023-11-19T07:55:08;67.97;;;10.27;;
56136;SDS011;42008;52.934;5.884;2023-11-19T07:57:34;62.40;;;9.53;;
56136;SDS011;42008;52.934;5.884;2023-11-19T08:00:00;61.53;;;10.37;;
56136;SDS011;42008;52.934;5.884;2023-11-19T08:02:27;51.97;;;10.23;;
56136;SDS011;42008;52.934;5.884;2023-11-19T08:04:53;59.00;;;10.50;;
56136;SDS011;42008;52.934;5.884;2023-11-19T08:07:20;65.70;;;9.87;;
56136;SDS011;42008;52.934;5.884;2023-11-19T08:09:47;56.60;;;9.93;;
56136;SDS011;42008;52.934;5.884;2023-11-19T08:12:13;54.10;;;10.43;;
56136;SDS011;42008;52.934;5.884;2023-11-19T08:14:40;58.83;;;9.27;;
56136;SDS011;42008;52.934;5.884;2023-11-19T08:17:06;55.80;;;8.63;;
56136;SDS011;42008;52.934;5.884;2023-11-19T08:19:32;63.20;;;8.93;;
56136;SDS011;42008;52.934;5.884;2023-11-19T08:21:58;56.83;;;9.60;;
56136;SDS011;42008;52.934;5.884;2023-11-19T08:24:24;64.90;;;9.97;;
56136;SDS011;42008;52.934;5.884;2023-11-19T08:26:50;58.47;;;9.40;;
56136;SDS011;42008;52.934;5.884;2023-11-19T08:29:16;49.00;;;8.90;;
56136;SDS011;42008;52.934;5.884;2023-11-19T08:31:42;65.57;;;10.23;;
56136;SDS011;42008;52.934;5.884;2023-11-19T08:34:08;63.77;;;9.53;;
56136;SDS011;42008;52.934;5.884;2023-11-19T08:36:34;55.17;;;9.90;;
56136;SDS011;42008;52.934;5.884;2023-11-19T08:39:00;54.03;;;10.47;;
56136;SDS011;42008;52.934;5.884;2023-11-19T08:41:26;56.90;;;9.30;;
56136;SDS011;42008;52.934;5.884;2023-11-19T08:43:52;66.97;;;9.93;;
56136;SDS011;42008;52.934;5.884;2023-11-19T08:46:18;63.67;;;10.63;;
56136;SDS011;42008;52.934;5.884;2023-11-19T08:48:45;66.07;;;10.30;;
56136;SDS011;42008;52.934;5.884;2023-11-19T08:51:11;57.03;;;9.50;;
56136;SDS011;42008;52.934;5.884;2023-11-19T08:53:37;59.57;;;9.47;;
56136;SDS011;42008;52.934;5.884;2023-11-19T08:56:04;60.33;;;10.27;;
56136;SDS011;42008;52.934;5.884;2023-11-19T08:58:30;54.33;;;9.27;;
56136;SDS011;42008;52.934;5.884;2023-11-19T09:00:56;51.93;;;10.23;;
56136;SDS011;42008;52.934;5.884;2023-11-19T09:03:23;59.40;;;10.77;;
56136;SDS011;42008;52.934;5.884;2023-11-19T09:05:51;64.87;;;9.93;;
56136;SDS011;42008;52.934;5.884;2023-11-19T09:08:17;56.43;;;10.53;;
56136;SDS011;42008;52.934;5.884;2023-11-19T09:10:43;70.93;;;11.87;;
56136;SDS011;42008;52.934;5.884;2023-11-19T09:13:09;60.30;;;10.13;;
56136;SDS011;42008;52.934;5.884;2023-11-19T09:15:35;54.30;;;8.47;;
56136;SDS011;42008;52.934;5.884;2023-11-19T09:18:01;62.43;;;10.40;;
56136;SDS011;42008;52.934;5.884;2023-11-19T09:20:27;49.10;;;8.97;;
56136;SDS011;42008;52.934;5.884;2023-11-19T09:22:54;57.17;;;9.30;;
56136;SDS011;42008;52.934;5.884;2023-11-19T09:25:20;54.63;;;9.67;;
56136;SDS011;42008;52.934;5.884;2023-11-19T09:27:46;55.10;;;9.57;;
56136;SDS011;42008;52.934;5.884;2023-11-19T09:30:12;58.33;;;10.10;;
56136;SDS011;42008;52.934;5.884;2023-11-19T09:32:38;59.23;;;9.07;;
56136;SDS011;42008;52.934;5.884;2023-11-19T09:35:04;55.10;;;8.00;;
56136;SDS011;42008;52.934;5.884;2023-11-19T09:37:31;64.07;;;11.27;;
56136;SDS011;42008;52.934;5.884;2023-11-19T09:39:57;51.83;;;8.40;;
56136;SDS011;42008;52.934;5.884;2023-11-19T09:42:23;50.87;;;7.80;;
56136;SDS011;42008;52.934;5.884;2023-11-19T09:44:49;49.47;;;9.50;;
56136;SDS011;42008;52.934;5.884;2023-11-19T09:47:16;54.33;;;8.53;;
56136;SDS011;42008;52.934;5.884;2023-11-19T09:49:42;64.43;;;10.17;;
56136;SDS011;42008;52.934;5.884;2023-11-19T09:52:08;46.63;;;8.33;;
56136;SDS011;42008;52.934;5.884;2023-11-19T09:54:34;53.53;;;8.87;;
56136;SDS011;42008;52.934;5.884;2023-11-19T09:57:01;48.97;;;8.20;;
56136;SDS011;42008;52.934;5.884;2023-11-19T09:59:28;65.27;;;9.33;;
56136;SDS011;42008;52.934;5.884;2023-11-19T10:01:54;56.57;;;8.00;;
56136;SDS011;42008;52.934;5.884;2023-11-19T10:04:21;55.10;;;10.07;;
56136;SDS011;42008;52.934;5.884;2023-11-19T10:06:47;46.80;;;7.83;;
56136;SDS011;42008;52.934;5.884;2023-11-19T10:09:14;56.80;;;9.73;;
56136;SDS011;42008;52.934;5.884;2023-11-19T10:11:40;65.57;;;10.40;;
56136;SDS011;42008;52.934;5.884;2023-11-19T10:14:06;57.03;;;8.67;;
56136;SDS011;42008;52.934;5.884;2023-11-19T10:16:34;59.23;;;10.70;;
56136;SDS011;42008;52.934;5.884;2023-11-19T10:19:00;60.40;;;9.40;;
56136;SDS011;42008;52.934;5.884;2023-11-19T10:21:26;51.73;;;8.43;;
56136;SDS011;42008;52.934;5.884;2023-11-19T10:23:56;55.90;;;8.53;;
56136;SDS011;42008;52.934;5.884;2023-11-19T10:26:25;60.05;;;9.50;;
56136;SDS011;42008;52.934;5.884;2023-11-19T10:28:51;58.57;;;8.73;;
56136;SDS011;42008;52.934;5.884;2023-11-19T10:31:17;61.47;;;9.83;;
56136;SDS011;42008;52.934;5.884;2023-11-19T10:33:44;54.90;;;8.67;;
56136;SDS011;42008;52.934;5.884;2023-11-19T10:36:10;51.90;;;8.93;;
56136;SDS011;42008;52.934;5.884;2023-11-19T10:38:39;57.47;;;8.87;;
56136;SDS011;42008;52.934;5.884;2023-11-19T10:41:06;48.53;;;9.33;;
56136;SDS011;42008;52.934;5.884;2023-11-19T10:43:42;48.93;;;8.40;;
56136;SDS011;42008;52.934;5.884;2023-11-19T10:46:13;47.73;;;8.80;;
56136;SDS011;42008;52.934;5.884;2023-11-19T10:48:39;51.60;;;9.43;;
56136;SDS011;42008;52.934;5.884;2023-11-19T10:51:06;47.50;;;8.37;;
56136;SDS011;42008;52.934;5.884;2023-11-19T10:53:37;52.13;;;8.23;;
56136;SDS011;42008;52.934;5.884;2023-11-19T10:56:06;56.40;;;9.07;;
56136;SDS011;42008;52.934;5.884;2023-11-19T10:58:36;57.37;;;9.87;;
56136;SDS011;42008;52.934;5.884;2023-11-19T11:01:07;55.17;;;8.20;;
56136;SDS011;42008;52.934;5.884;2023-11-19T11:03:38;55.47;;;9.93;;
56136;SDS011;42008;52.934;5.884;2023-11-19T11:06:05;46.93;;;8.87;;
56136;SDS011;42008;52.934;5.884;2023-11-19T11:08:31;49.33;;;8.77;;
56136;SDS011;42008;52.934;5.884;2023-11-19T11:10:57;53.17;;;9.30;;
56136;SDS011;42008;52.934;5.884;2023-11-19T11:13:25;57.23;;;9.83;;
56136;SDS011;42008;52.934;5.884;2023-11-19T11:15:55;55.07;;;8.67;;
56136;SDS011;42008;52.934;5.884;2023-11-19T11:18:23;47.57;;;8.90;;
56136;SDS011;42008;52.934;5.884;2023-11-19T11:20:54;56.23;;;10.83;;
56136;SDS011;42008;52.934;5.884;2023-11-19T11:23:37;57.87;;;8.60;;
56136;SDS011;42008;52.934;5.884;2023-11-19T11:36:19;43.13;;;7.57;;
56136;SDS011;42008;52.934;5.884;2023-11-19T11:38:47;49.80;;;7.67;;
56136;SDS011;42008;52.934;5.884;2023-11-19T11:41:23;51.87;;;8.53;;
56136;SDS011;42008;52.934;5.884;2023-11-19T11:43:51;47.00;;;8.47;;
56136;SDS011;42008;52.934;5.884;2023-11-19T11:49:00;40.47;;;7.10;;
56136;SDS011;42008;52.934;5.884;2023-11-19T11:54:11;38.63;;;7.13;;
56136;SDS011;42008;52.934;5.884;2023-11-19T11:56:37;48.40;;;8.23;;
56136;SDS011;42008;52.934;5.884;2023-11-19T11:59:07;46.37;;;8.83;;
56136;SDS011;42008;52.934;5.884;2023-11-19T12:01:33;41.60;;;8.27;;
56136;SDS011;42008;52.934;5.884;2023-11-19T12:03:59;47.80;;;10.10;;
56136;SDS011;42008;52.934;5.884;2023-11-19T12:06:26;48.97;;;8.87;;
56136;SDS011;42008;52.934;5.884;2023-11-19T12:08:52;41.93;;;7.87;;
56136;SDS011;42008;52.934;5.884;2023-11-19T12:11:20;40.03;;;8.13;;
56136;SDS011;42008;52.934;5.884;2023-11-19T12:13:47;43.70;;;7.73;;
56136;SDS011;42008;52.934;5.884;2023-11-19T12:16:14;39.27;;;6.90;;
56136;SDS011;42008;52.934;5.884;2023-11-19T12:18:40;41.87;;;6.73;;
56136;SDS011;42008;52.934;5.884;2023-11-19T12:21:06;45.60;;;8.87;;
56136;SDS011;42008;52.934;5.884;2023-11-19T12:23:34;45.90;;;7.77;;
56136;SDS011;42008;52.934;5.884;2023-11-19T12:26:00;46.77;;;7.80;;
56136;SDS011;42008;52.934;5.884;2023-11-19T12:28:26;42.00;;;8.60;;
56136;SDS011;42008;52.934;5.884;2023-11-19T12:30:53;41.37;;;7.67;;
56136;SDS011;42008;52.934;5.884;2023-11-19T12:33:19;36.87;;;6.77;;
56136;SDS011;42008;52.934;5.884;2023-11-19T12:35:45;49.30;;;7.40;;
56136;SDS011;42008;52.934;5.884;2023-11-19T12:38:18;44.57;;;8.57;;
56136;SDS011;42008;52.934;5.884;2023-11-19T12:40:45;36.77;;;7.23;;
56136;SDS011;42008;52.934;5.884;2023-11-19T12:43:20;42.20;;;8.20;;
56136;SDS011;42008;52.934;5.884;2023-11-19T12:45:47;34.63;;;6.07;;
56136;SDS011;42008;52.934;5.884;2023-11-19T12:48:13;38.27;;;7.33;;
56136;SDS011;42008;52.934;5.884;2023-11-19T12:50:55;41.57;;;8.17;;
56136;SDS011;42008;52.934;5.884;2023-11-19T12:53:23;41.27;;;7.33;;
56136;SDS011;42008;52.934;5.884;2023-11-19T12:55:49;45.37;;;7.50;;
56136;SDS011;42008;52.934;5.884;2023-11-19T13:01:18;42.63;;;6.83;;
56136;SDS011;42008;52.934;5.884;2023-11-19T13:03:44;41.93;;;7.97;;
56136;SDS011;42008;52.934;5.884;2023-11-19T13:06:10;41.90;;;7.10;;
56136;SDS011;42008;52.934;5.884;2023-11-19T13:08:40;39.77;;;7.43;;
56136;SDS011;42008;52.934;5.884;2023-11-19T13:11:07;40.17;;;6.87;;
56136;SDS011;42008;52.934;5.884;2023-11-19T13:13:52;44.40;;;8.00;;
56136;SDS011;42008;52.934;5.884;2023-11-19T13:16:19;45.70;;;7.37;;
56136;SDS011;42008;52.934;5.884;2023-11-19T13:18:45;41.77;;;7.50;;
56136;SDS011;42008;52.934;5.884;2023-11-19T13:21:11;41.20;;;7.03;;
56136;SDS011;42008;52.934;5.884;2023-11-19T13:23:37;39.80;;;7.93;;
56136;SDS011;42008;52.934;5.884;2023-11-19T13:26:03;44.33;;;7.43;;
56136;SDS011;42008;52.934;5.884;2023-11-19T13:28:29;44.50;;;7.73;;
56136;SDS011;42008;52.934;5.884;2023-11-19T13:30:55;41.30;;;6.43;;
56136;SDS011;42008;52.934;5.884;2023-11-19T13:33:21;34.27;;;8.00;;
56136;SDS011;42008;52.934;5.884;2023-11-19T13:35:47;42.10;;;7.30;;
56136;SDS011;42008;52.934;5.884;2023-11-19T13:38:13;48.27;;;8.70;;
56136;SDS011;42008;52.934;5.884;2023-11-19T13:40:39;45.50;;;7.57;;
56136;SDS011;42008;52.934;5.884;2023-11-19T13:43:05;40.27;;;6.83;;
56136;SDS011;42008;52.934;5.884;2023-11-19T13:45:32;42.53;;;8.20;;
56136;SDS011;42008;52.934;5.884;2023-11-19T13:47:58;43.93;;;7.47;;
56136;SDS011;42008;52.934;5.884;2023-11-19T13:50:24;43.80;;;7.40;;
56136;SDS011;42008;52.934;5.884;2023-11-19T13:52:50;50.77;;;7.80;;
56136;SDS011;42008;52.934;5.884;2023-11-19T13:55:16;51.20;;;7.53;;
56136;SDS011;42008;52.934;5.884;2023-11-19T13:57:43;49.13;;;8.17;;
56136;SDS011;42008;52.934;5.884;2023-11-19T14:00:09;41.90;;;8.07;;
56136;SDS011;42008;52.934;5.884;2023-11-19T14:02:38;45.27;;;7.90;;
56136;SDS011;42008;52.934;5.884;2023-11-19T14:05:05;47.83;;;8.60;;
56136;SDS011;42008;52.934;5.884;2023-11-19T14:07:31;47.93;;;7.90;;
56136;SDS011;42008;52.934;5.884;2023-11-19T14:09:57;52.03;;;9.33;;
56136;SDS011;42008;52.934;5.884;2023-11-19T14:12:23;42.17;;;7.73;;
56136;SDS011;42008;52.934;5.884;2023-11-19T14:14:49;43.73;;;7.47;;
56136;SDS011;42008;52.934;5.884;2023-11-19T14:17:15;49.83;;;7.80;;
56136;SDS011;42008;52.934;5.884;2023-11-19T14:19:41;40.43;;;7.83;;
56136;SDS011;42008;52.934;5.884;2023-11-19T14:22:10;43.87;;;7.27;;
56136;SDS011;42008;52.934;5.884;2023-11-19T14:24:37;43.83;;;7.53;;
56136;SDS011;42008;52.934;5.884;2023-11-19T14:27:03;42.23;;;6.93;;
56136;SDS011;42008;52.934;5.884;2023-11-19T14:29:29;37.63;;;6.50;;
56136;SDS011;42008;52.934;5.884;2023-11-19T14:31:55;36.47;;;7.37;;
56136;SDS011;42008;52.934;5.884;2023-11-19T14:34:22;44.10;;;8.03;;
56136;SDS011;42008;52.934;5.884;2023-11-19T14:36:48;45.03;;;7.73;;
56136;SDS011;42008;52.934;5.884;2023-11-19T14:39:14;40.77;;;6.93;;
56136;SDS011;42008;52.934;5.884;2023-11-19T14:41:42;45.87;;;7.87;;
56136;SDS011;42008;52.934;5.884;2023-11-19T14:44:09;33.87;;;6.33;;
56136;SDS011;42008;52.934;5.884;2023-11-19T14:46:35;39.83;;;5.97;;